Time;durP1;ratioP1;P1;durP2;ratioP2;P2;SDS_P1;SDS_P2;PMS_P1;PMS_P2;Temp;Humidity;BMP_temperature;BMP_pressure;BME280_temperature;BME280_humidity;BME280_pressure;Samples;Min_cycle;Max_cycle;Signal;HPM_P1;HPM_P2
2024/02/15 00:01:17;;;;;;;;;;;;;;;10.97;100.00;101597.47;5096101;28;19920;-76
2024/02/15 00:03:42;;;;;;;;;;;;;;;10.97;100.00;101592.22;5095422;28;19920;-76
2024/02/15 00:06:08;;;;;;;;;;;;;;;10.97;100.00;101587.88;5095171;28;19920;-76
2024/02/15 00:08:33;;;;;;;;;;;;;;;10.97;100.00;101598.34;5095703;28;19920;-76
2024/02/15 00:10:58;;;;;;;;;;;;;;;10.96;100.00;101588.75;5094516;28;19920;-76
2024/02/15 00:13:24;;;;;;;;;;;;;;;10.93;100.00;101594.97;5095224;28;20218;-76
2024/02/15 00:15:50;;;;;;;;;;;;;;;10.96;100.00;101591.38;5095211;28;19942;-76
2024/02/15 00:18:16;;;;;;;;;;;;;;;10.97;100.00;101593.09;5095009;28;19924;-76
2024/02/15 00:20:41;;;;;;;;;;;;;;;10.98;100.00;101586.09;5101367;28;20293;-76
2024/02/15 00:23:07;;;;;;;;;;;;;;;10.95;100.00;101595.75;5097476;28;19943;-76
2024/02/15 00:25:32;;;;;;;;;;;;;;;10.94;100.00;101590.56;5096163;28;19916;-76
2024/02/15 00:28:00;;;;;;;;;;;;;;;10.91;100.00;101586.28;5097111;28;20224;-76
2024/02/15 00:30:27;;;;;;;;;;;;;;;10.93;100.00;101583.59;5097004;28;19987;-76
2024/02/15 00:32:52;;;;;;;;;;;;;;;10.90;100.00;101576.69;5097139;28;19916;-76
2024/02/15 00:35:18;;;;;;;;;;;;;;;10.89;100.00;101580.22;5096971;28;20739;-76
2024/02/15 00:37:44;;;;;;;;;;;;;;;10.88;100.00;101586.38;5097446;28;19912;-76
2024/02/15 00:40:09;;;;;;;;;;;;;;;10.89;100.00;101579.34;5096977;28;19982;-76
2024/02/15 00:42:34;;;;;;;;;;;;;;;10.88;100.00;101589.00;5097126;28;19951;-76
2024/02/15 00:44:59;;;;;;;;;;;;;;;10.90;100.00;101588.94;5096666;28;20270;-76
2024/02/15 00:47:25;;;;;;;;;;;;;;;10.88;100.00;101577.66;5095955;28;19927;-76
2024/02/15 00:49:50;;;;;;;;;;;;;;;10.89;100.00;101576.75;5096346;28;19916;-76
2024/02/15 00:52:17;;;;;;;;;;;;;;;10.86;100.00;101575.09;5097023;28;19990;-76
2024/02/15 00:54:42;;;;;;;;;;;;;;;10.88;100.00;101581.13;5097320;28;20177;-76
2024/02/15 00:57:07;;;;;;;;;;;;;;;10.88;100.00;101577.66;5096240;28;19926;-76
2024/02/15 00:59:35;;;;;;;;;;;;;;;10.89;100.00;101582.81;5096849;28;19916;-76
2024/02/15 01:02:02;;;;;;;;;;;;;;;10.87;100.00;101568.91;5095900;28;19955;-76
2024/02/15 01:04:27;;;;;;;;;;;;;;;10.90;100.00;101581.94;5096124;28;19920;-76
2024/02/15 01:06:52;;;;;;;;;;;;;;;10.88;100.00;101569.81;5094952;28;19995;-76
2024/02/15 01:09:18;;;;;;;;;;;;;;;10.90;100.00;101568.84;5078035;28;20242;-76
2024/02/15 01:11:43;;;;;;;;;;;;;;;10.90;100.00;101568.84;5096442;28;19969;-76
2024/02/15 01:14:09;;;;;;;;;;;;;;;10.92;100.00;101567.03;5096280;28;19982;-76
2024/02/15 01:16:35;;;;;;;;;;;;;;;10.93;100.00;101560.00;5096711;28;20181;-76
2024/02/15 01:19:01;;;;;;;;;;;;;;;10.91;100.00;101560.09;5077496;28;19919;-76
2024/02/15 01:21:26;;;;;;;;;;;;;;;10.92;100.00;101567.03;5097151;28;20314;-76
2024/02/15 01:23:53;;;;;;;;;;;;;;;10.89;100.00;101550.53;5077337;28;20010;-76
2024/02/15 01:26:18;;;;;;;;;;;;;;;10.85;100.00;101547.16;5078480;28;19920;-76
2024/02/15 01:28:44;;;;;;;;;;;;;;;10.86;100.00;101542.75;5095605;28;19951;-76
2024/02/15 01:31:10;;;;;;;;;;;;;;;10.86;100.00;101545.38;5095305;28;19919;-76
2024/02/15 01:33:36;;;;;;;;;;;;;;;10.86;100.00;101537.50;5073712;28;19920;-76
2024/02/15 01:36:01;;;;;;;;;;;;;;;10.85;100.00;101546.31;5095629;28;19920;-76
2024/02/15 01:38:27;;;;;;;;;;;;;;;10.87;100.00;101549.72;5096785;28;19923;-76
2024/02/15 01:40:52;;;;;;;;;;;;;;;10.87;100.00;101547.09;5096133;28;20266;-76
2024/02/15 01:43:17;;;;;;;;;;;;;;;10.86;100.00;101553.25;5096402;28;20269;-76
2024/02/15 01:45:43;;;;;;;;;;;;;;;10.85;100.00;101547.16;5096726;28;19932;-76
2024/02/15 01:48:10;;;;;;;;;;;;;;;10.84;100.00;101545.44;5095107;28;20123;-76
2024/02/15 01:50:35;;;;;;;;;;;;;;;10.83;100.00;101542.88;5095712;28;19920;-76
2024/02/15 01:53:01;;;;;;;;;;;;;;;10.78;100.00;101542.16;5095291;28;20104;-76
2024/02/15 01:55:27;;;;;;;;;;;;;;;10.78;100.00;101527.28;5096159;28;19987;-76
2024/02/15 01:57:52;;;;;;;;;;;;;;;10.77;100.00;101528.19;5094404;28;20246;-76
2024/02/15 02:00:17;;;;;;;;;;;;;;;10.78;100.00;101529.91;5095850;28;19927;-76
2024/02/15 02:02:44;;;;;;;;;;;;;;;10.77;100.00;101530.81;5095817;28;19919;-76
2024/02/15 02:05:09;;;;;;;;;;;;;;;10.76;100.00;101526.47;5095473;28;20612;-76
2024/02/15 02:07:35;;;;;;;;;;;;;;;10.76;100.00;101524.69;5096066;28;19920;-76
2024/02/15 02:10:01;;;;;;;;;;;;;;;10.76;100.00;101518.63;5094726;28;20104;-76
2024/02/15 02:12:27;;;;;;;;;;;;;;;10.78;100.00;101513.31;5111124;28;19923;-76
2024/02/15 02:14:53;;;;;;;;;;;;;;;10.77;100.00;101517.72;5095046;28;19920;-76
2024/02/15 02:17:19;;;;;;;;;;;;;;;10.79;100.00;101517.66;5096049;28;19920;-76
2024/02/15 02:19:45;;;;;;;;;;;;;;;10.76;100.00;101516.84;5095516;28;19919;-76
2024/02/15 02:22:11;;;;;;;;;;;;;;;10.76;100.00;101516.84;5094627;28;20029;-76
2024/02/15 02:24:40;;;;;;;;;;;;;;;10.78;100.00;101508.94;5095406;28;19924;-76
2024/02/15 02:27:07;;;;;;;;;;;;;;;10.79;100.00;101512.41;5094448;28;19974;-76
2024/02/15 02:29:33;;;;;;;;;;;;;;;10.81;100.00;101510.63;5094929;28;19920;-76
2024/02/15 02:31:58;;;;;;;;;;;;;;;10.82;100.00;101510.56;5075877;28;20089;-76
2024/02/15 02:34:24;;;;;;;;;;;;;;;10.82;100.00;101513.16;5095451;28;19916;-76
2024/02/15 02:36:50;;;;;;;;;;;;;;;10.80;100.00;101517.59;5094767;28;19920;-76
2024/02/15 02:39:16;;;;;;;;;;;;;;;10.81;100.00;101518.47;5094825;28;19983;-76
2024/02/15 02:41:42;;;;;;;;;;;;;;;10.84;100.00;101513.13;5094923;28;19947;-76
2024/02/15 02:44:07;;;;;;;;;;;;;;;10.82;100.00;101518.41;5094433;28;20255;-76
2024/02/15 02:46:33;;;;;;;;;;;;;;;10.78;100.00;101516.78;5094999;28;19924;-76
2024/02/15 02:48:58;;;;;;;;;;;;;;;10.80;100.00;101517.59;5094071;28;19920;-76
2024/02/15 02:51:23;;;;;;;;;;;;;;;10.80;100.00;101514.13;5094813;28;19920;-76
2024/02/15 02:53:48;;;;;;;;;;;;;;;10.80;100.00;101520.22;5094745;28;19924;-76
2024/02/15 02:56:13;;;;;;;;;;;;;;;10.79;100.00;101515.91;5094005;28;19963;-76
2024/02/15 02:58:42;;;;;;;;;;;;;;;10.80;100.00;101514.97;5094655;28;19927;-76
2024/02/15 03:01:08;;;;;;;;;;;;;;;10.82;100.00;101514.94;5084939;28;19935;-76
2024/02/15 03:03:33;;;;;;;;;;;;;;;10.81;100.00;101505.38;5094503;28;19920;-76
2024/02/15 03:05:59;;;;;;;;;;;;;;;10.81;100.00;101506.22;5094180;28;19924;-76
2024/02/15 03:08:24;;;;;;;;;;;;;;;10.83;100.00;101511.44;5094912;28;20216;-76
2024/02/15 03:10:51;;;;;;;;;;;;;;;10.84;100.00;101507.88;5078830;28;20153;-76
2024/02/15 03:13:19;;;;;;;;;;;;;;;10.85;100.00;101507.84;5098242;28;20126;-76
2024/02/15 03:15:47;;;;;;;;;;;;;;;10.87;100.00;101503.41;5080873;28;20252;-76
2024/02/15 03:18:12;;;;;;;;;;;;;;;10.85;100.00;101499.97;5097900;28;20175;-77
2024/02/15 03:20:38;;;;;;;;;;;;;;;10.84;100.00;101500.03;5098681;28;19919;-77
2024/02/15 03:23:03;;;;;;;;;;;;;;;10.83;100.00;101496.56;5097416;28;19927;-77
2024/02/15 03:25:28;;;;;;;;;;;;;;;10.84;100.00;101495.66;5098391;28;19930;-77
2024/02/15 03:27:58;;;;;;;;;;;;;;;10.82;100.00;101493.97;5097367;28;19924;-77
2024/02/15 03:30:24;;;;;;;;;;;;;;;10.82;100.00;101488.75;5080098;28;19945;-77
2024/02/15 03:32:50;;;;;;;;;;;;;;;10.81;100.00;101489.66;5096552;28;19920;-77
2024/02/15 03:35:17;;;;;;;;;;;;;;;10.79;100.00;101497.56;5098408;28;19920;-77
2024/02/15 03:37:42;;;;;;;;;;;;;;;10.83;100.00;101495.72;5097511;28;19944;-77
2024/02/15 03:40:08;;;;;;;;;;;;;;;10.83;100.00;101495.72;5097399;28;20215;-77
2024/02/15 03:42:36;;;;;;;;;;;;;;;10.83;100.00;101495.72;5098121;28;20214;-77
2024/02/15 03:45:02;;;;;;;;;;;;;;;10.83;100.00;101488.69;5096836;28;19963;-77
2024/02/15 03:47:28;;;;;;;;;;;;;;;10.84;100.00;101492.16;5097621;28;20234;-77
2024/02/15 03:49:55;;;;;;;;;;;;;;;10.82;100.00;101486.97;5078772;28;19943;-77
2024/02/15 03:52:21;;;;;;;;;;;;;;;10.83;100.00;101486.06;5097973;28;19920;-77
2024/02/15 03:54:47;;;;;;;;;;;;;;;10.83;100.00;101486.06;5097801;28;19920;-77
2024/02/15 03:57:12;;;;;;;;;;;;;;;10.85;100.00;101480.78;5097064;28;20053;-77
2024/02/15 03:59:40;;;;;;;;;;;;;;;10.84;100.00;101477.31;5078695;28;19926;-77
2024/02/15 04:02:08;;;;;;;;;;;;;;;10.84;100.00;101477.31;5096782;28;19965;-77
2024/02/15 04:04:34;;;;;;;;;;;;;;;10.84;100.00;101476.44;5078774;28;19916;-77
2024/02/15 04:06:59;;;;;;;;;;;;;;;10.86;100.00;101474.63;5097169;28;19920;-77
2024/02/15 04:09:25;;;;;;;;;;;;;;;10.85;100.00;101472.94;5097090;28;20112;-77
2024/02/15 04:11:52;;;;;;;;;;;;;;;10.83;100.00;101472.13;5096403;28;19920;-77
2024/02/15 04:14:18;;;;;;;;;;;;;;;10.81;100.00;101473.94;5097191;28;19920;-77
2024/02/15 04:16:43;;;;;;;;;;;;;;;10.80;100.00;101477.44;5097503;28;19920;-77
2024/02/15 04:19:09;;;;;;;;;;;;;;;10.82;100.00;101486.13;5097291;28;19951;-77
2024/02/15 04:21:35;;;;;;;;;;;;;;;10.80;100.00;101477.44;5096160;28;19920;-77
2024/02/15 04:24:00;;;;;;;;;;;;;;;10.78;100.00;101472.25;5096460;28;19924;-77
2024/02/15 04:26:26;;;;;;;;;;;;;;;10.80;100.00;101470.44;5096787;28;19995;-77
2024/02/15 04:28:52;;;;;;;;;;;;;;;10.82;100.00;101462.53;5078017;28;19920;-77
2024/02/15 04:31:18;;;;;;;;;;;;;;;10.83;100.00;101472.97;5096817;28;19942;-77
2024/02/15 04:33:43;;;;;;;;;;;;;;;10.78;100.00;101471.41;5096774;28;19950;-77
2024/02/15 04:36:08;;;;;;;;;;;;;;;10.80;100.00;101474.84;5096186;28;20120;-77
2024/02/15 04:38:34;;;;;;;;;;;;;;;10.82;100.00;101483.50;5096819;28;19947;-77
2024/02/15 04:41:00;;;;;;;;;;;;;;;10.81;100.00;101487.03;5096114;28;19912;-77
2024/02/15 04:43:25;;;;;;;;;;;;;;;10.79;100.00;101488.81;5097185;28;19920;-77
2024/02/15 04:45:51;;;;;;;;;;;;;;;10.80;100.00;101490.56;5077317;28;19967;-77
2024/02/15 04:48:18;;;;;;;;;;;;;;;10.79;100.00;101489.72;5096385;28;19927;-77
2024/02/15 04:50:44;;;;;;;;;;;;;;;10.78;100.00;101490.59;5096107;28;20193;-77
2024/02/15 04:53:11;;;;;;;;;;;;;;;10.80;100.00;101480.91;5084783;28;19942;-77
2024/02/15 04:55:36;;;;;;;;;;;;;;;10.81;100.00;101481.81;5096627;28;20360;-77
2024/02/15 04:58:01;;;;;;;;;;;;;;;10.82;100.00;101459.91;5095838;28;20215;-77
2024/02/15 05:00:26;;;;;;;;;;;;;;;10.80;100.00;101430.28;5078277;28;20207;-77
2024/02/15 05:02:52;;;;;;;;;;;;;;;10.81;100.00;101398.81;5077661;28;19985;-77
2024/02/15 05:05:17;;;;;;;;;;;;;;;10.80;100.00;101407.56;5096625;28;20258;-77
2024/02/15 05:07:43;;;;;;;;;;;;;;;10.81;100.00;101435.50;5095751;28;19951;-77
2024/02/15 05:10:09;;;;;;;;;;;;;;;10.81;100.00;101442.50;5094804;28;20165;-77
2024/02/15 05:12:35;;;;;;;;;;;;;;;10.79;100.00;101421.59;5095934;28;19958;-77
2024/02/15 05:15:00;;;;;;;;;;;;;;;10.79;100.00;101426.81;5096380;28;19916;-77
2024/02/15 05:17:28;;;;;;;;;;;;;;;10.82;100.00;101425.84;5095664;28;19912;-77
2024/02/15 05:19:53;;;;;;;;;;;;;;;10.81;100.00;101421.53;5096011;28;19924;-77
2024/02/15 05:22:19;;;;;;;;;;;;;;;10.82;100.00;101426.69;5095769;28;20136;-77
2024/02/15 05:24:44;;;;;;;;;;;;;;;10.83;100.00;101417.09;5095300;28;20046;-77
2024/02/15 05:27:09;;;;;;;;;;;;;;;10.84;100.00;101419.69;5094529;28;19942;-77
2024/02/15 05:29:35;;;;;;;;;;;;;;;10.86;100.00;101414.34;5095697;28;20127;-77
2024/02/15 05:32:01;;;;;;;;;;;;;;;10.83;100.00;101412.72;5094919;28;20330;-77
2024/02/15 05:34:26;;;;;;;;;;;;;;;10.84;100.00;101418.81;5095903;28;19995;-77
2024/02/15 05:36:52;;;;;;;;;;;;;;;10.82;100.00;101413.59;5094559;28;20304;-77
2024/02/15 05:39:20;;;;;;;;;;;;;;;10.80;100.00;101414.56;5081892;28;19923;-77
2024/02/15 05:41:45;;;;;;;;;;;;;;;10.82;100.00;101416.22;5078016;28;20201;-77
2024/02/15 05:44:11;;;;;;;;;;;;;;;10.82;100.00;101412.75;5094976;28;20160;-77
2024/02/15 05:46:38;;;;;;;;;;;;;;;10.83;100.00;101424.97;5094440;28;19920;-77
2024/02/15 05:49:04;;;;;;;;;;;;;;;10.80;100.00;101415.41;5095114;28;20277;-77
2024/02/15 05:51:31;;;;;;;;;;;;;;;10.83;100.00;101417.94;5095097;28;19927;-77
2024/02/15 05:53:59;;;;;;;;;;;;;;;10.83;100.00;101414.47;5095040;28;19943;-77
2024/02/15 05:56:25;;;;;;;;;;;;;;;10.85;100.00;101412.66;5095641;28;19927;-77
2024/02/15 05:58:51;;;;;;;;;;;;;;;10.86;100.00;101396.91;5075949;28;20152;-77
2024/02/15 06:01:16;;;;;;;;;;;;;;;10.83;100.00;101394.38;5095398;28;19912;-77
2024/02/15 06:03:44;;;;;;;;;;;;;;;10.82;100.00;101395.25;5095333;28;19927;-77
2024/02/15 06:06:09;;;;;;;;;;;;;;;10.82;100.00;101403.13;5095415;28;19927;-77
2024/02/15 06:08:35;;;;;;;;;;;;;;;10.82;100.00;101391.78;5095175;28;20236;-77
2024/02/15 06:11:01;;;;;;;;;;;;;;;10.83;100.00;101390.91;5093873;28;19955;-77
2024/02/15 06:13:26;;;;;;;;;;;;;;;10.82;100.00;101397.88;5094739;28;19920;-77
2024/02/15 06:15:55;;;;;;;;;;;;;;;10.80;100.00;101391.84;5094472;28;19991;-77
2024/02/15 06:18:31;;;;;;;;;;;;;;;10.81;100.00;101390.94;5076539;28;19920;-77
2024/02/15 06:20:57;;;;;;;;;;;;;;;10.82;100.00;101397.03;5094885;28;20091;-77
2024/02/15 06:23:22;;;;;;;;;;;;;;;10.81;100.00;101387.47;5094531;28;20158;-77
2024/02/15 06:25:50;;;;;;;;;;;;;;;10.79;100.00;101394.50;5094994;28;20219;-77
2024/02/15 06:39:38;;;;;;;;;;;;;;;10.80;100.00;101383.97;5094736;28;19942;-76
2024/02/15 06:42:01;;;;;;;;;;;;;;;10.82;100.00;101390.03;5094494;28;19969;-77
2024/02/15 06:44:26;;;;;;;;;;;;;;;10.83;100.00;101394.38;5095040;28;20169;-77
2024/02/15 06:46:51;;;;;;;;;;;;;;;10.80;100.00;101399.69;5098700;28;19927;-77
2024/02/15 06:49:17;;;;;;;;;;;;;;;10.80;100.00;101407.56;5099199;28;20181;-77
2024/02/15 06:51:43;;;;;;;;;;;;;;;10.79;100.00;101418.09;5096594;28;19951;-77
2024/02/15 06:54:08;;;;;;;;;;;;;;;10.83;100.00;101419.72;5097873;28;19954;-77
2024/02/15 06:56:37;;;;;;;;;;;;;;;10.82;100.00;101410.97;5097912;28;19924;-77
2024/02/15 06:59:02;;;;;;;;;;;;;;;10.84;100.00;101401.34;5097615;28;19927;-77
2024/02/15 07:01:28;;;;;;;;;;;;;;;10.83;100.00;101399.59;5099099;28;19920;-77
2024/02/15 07:03:53;;;;;;;;;;;;;;;10.80;100.00;101401.47;5096902;28;19944;-77
2024/02/15 07:06:18;;;;;;;;;;;;;;;10.83;100.00;101398.75;5097691;28;20281;-77
2024/02/15 07:08:44;;;;;;;;;;;;;;;10.82;100.00;101392.66;5097746;28;20340;-77
2024/02/15 07:11:09;;;;;;;;;;;;;;;10.82;100.00;101405.75;5097628;28;19927;-77
2024/02/15 07:13:35;;;;;;;;;;;;;;;10.83;100.00;101411.88;5098636;28;20336;-77
2024/02/15 07:16:01;;;;;;;;;;;;;;;10.85;100.00;101410.03;5097063;28;19919;-77
2024/02/15 07:18:27;;;;;;;;;;;;;;;10.82;100.00;101416.22;5098282;28;19957;-77
2024/02/15 07:20:53;;;;;;;;;;;;;;;10.81;100.00;101417.16;5097011;28;19969;-77
2024/02/15 07:23:18;;;;;;;;;;;;;;;10.79;100.00;101415.47;5097641;28;19920;-77
2024/02/15 07:25:43;;;;;;;;;;;;;;;10.80;100.00;101419.81;5097940;28;19920;-77
2024/02/15 07:28:09;;;;;;;;;;;;;;;10.83;100.00;101420.56;5096960;28;20464;-77
2024/02/15 07:30:36;;;;;;;;;;;;;;;10.82;100.00;101424.09;5096674;28;19927;-77
2024/02/15 07:33:02;;;;;;;;;;;;;;;10.83;100.00;101422.34;5097308;28;19947;-77
2024/02/15 07:35:28;;;;;;;;;;;;;;;10.83;100.00;101412.72;5097320;28;20246;-77
2024/02/15 07:37:55;;;;;;;;;;;;;;;10.83;100.00;101411.88;5096781;28;19916;-77
2024/02/15 07:40:22;;;;;;;;;;;;;;;10.83;100.00;101410.09;5078217;28;20104;-76
2024/02/15 07:42:47;;;;;;;;;;;;;;;10.84;100.00;101410.94;5096283;28;19920;-76
2024/02/15 07:45:12;;;;;;;;;;;;;;;10.85;100.00;101399.56;5096138;28;19931;-76
2024/02/15 07:47:38;;;;;;;;;;;;;;;10.85;100.00;101400.41;5096546;28;19919;-76
2024/02/15 07:50:05;;;;;;;;;;;;;;;10.86;100.00;101398.63;5095955;28;19942;-76
2024/02/15 07:52:30;;;;;;;;;;;;;;;10.87;100.00;101397.75;5079265;28;20183;-76
2024/02/15 07:54:56;;;;;;;;;;;;;;;10.88;100.00;101396.84;5091330;28;19924;-76
2024/02/15 07:57:21;;;;;;;;;;;;;;;10.87;100.00;101398.59;5095819;28;20116;-76
2024/02/15 07:59:47;;;;;;;;;;;;;;;10.88;100.00;101396.84;5096837;28;19970;-76
2024/02/15 08:02:17;;;;;;;;;;;;;;;10.87;100.00;101388.13;5097030;28;20241;-76
2024/02/15 08:04:44;;;;;;;;;;;;;;;10.87;100.00;101382.88;5096974;28;19999;-76
2024/02/15 08:07:10;;;;;;;;;;;;;;;10.89;100.00;101385.44;5092170;28;19920;-76
2024/02/15 08:09:36;;;;;;;;;;;;;;;10.91;100.00;101389.75;5097447;28;19974;-76
2024/02/15 08:12:03;;;;;;;;;;;;;;;10.90;100.00;101398.50;5096259;28;19928;-76
2024/02/15 08:14:28;;;;;;;;;;;;;;;10.88;100.00;101399.47;5076695;28;19985;-76
2024/02/15 08:16:55;;;;;;;;;;;;;;;10.90;100.00;101400.28;5094413;28;20161;-76
2024/02/15 08:19:22;;;;;;;;;;;;;;;10.90;100.00;101402.91;5087197;28;19920;-76
2024/02/15 08:21:50;;;;;;;;;;;;;;;10.87;100.00;101401.22;5070182;28;19920;-76
2024/02/15 08:24:16;;;;;;;;;;;;;;;10.89;100.00;101403.78;5068865;28;19924;-76
2024/02/15 08:26:42;;;;;;;;;;;;;;;10.88;100.00;101405.56;5092179;28;19953;-76
2024/02/15 08:29:07;;;;;;;;;;;;;;;10.89;100.00;101393.31;5091305;28;19926;-76
2024/02/15 08:31:33;;;;;;;;;;;;;;;10.92;100.00;101390.59;5070940;28;20216;-76
2024/02/15 08:34:00;;;;;;;;;;;;;;;10.92;100.00;101396.69;5090472;28;19955;-76
2024/02/15 08:36:25;;;;;;;;;;;;;;;10.89;100.00;101396.78;5086597;28;20172;-76
2024/02/15 08:38:51;;;;;;;;;;;;;;;10.91;100.00;101392.38;5086885;28;20270;-76
2024/02/15 08:41:18;;;;;;;;;;;;;;;10.90;100.00;101385.41;5088369;28;20211;-76
2024/02/15 08:43:43;;;;;;;;;;;;;;;10.92;100.00;101386.19;5089642;28;19919;-76
2024/02/15 08:46:09;;;;;;;;;;;;;;;10.97;100.00;101382.56;5090607;28;20202;-76
2024/02/15 08:48:35;;;;;;;;;;;;;;;10.94;100.00;101386.16;5090615;28;19920;-76
2024/02/15 08:51:00;;;;;;;;;;;;;;;10.93;100.00;101389.66;5091077;28;19927;-76
2024/02/15 08:53:26;;;;;;;;;;;;;;;10.94;100.00;101388.78;5097188;28;20278;-76
2024/02/15 08:55:52;;;;;;;;;;;;;;;10.94;100.00;101383.53;5082017;28;19920;-76
2024/02/15 08:58:18;;;;;;;;;;;;;;;11.00;100.00;101382.47;5072872;28;19933;-76
2024/02/15 09:00:45;;;;;;;;;;;;;;;10.98;100.00;101377.28;5095685;28;19924;-76
2024/02/15 09:03:16;;;;;;;;;;;;;;;10.97;100.00;101372.97;5089921;28;19983;-76
2024/02/15 09:05:41;;;;;;;;;;;;;;;10.99;100.00;101375.50;5089712;28;19997;-76
2024/02/15 09:08:07;;;;;;;;;;;;;;;11.00;100.00;101371.97;5090429;28;19979;-76
2024/02/15 09:10:33;;;;;;;;;;;;;;;11.01;100.00;101377.19;5072260;28;20275;-76
2024/02/15 09:12:58;;;;;;;;;;;;;;;11.04;100.00;101373.59;5090531;28;19976;-76
2024/02/15 09:15:24;;;;;;;;;;;;;;;11.04;100.00;101376.22;5090710;28;19920;-76
2024/02/15 09:17:49;;;;;;;;;;;;;;;11.02;100.00;101362.31;5090395;28;20203;-76
2024/02/15 09:20:18;;;;;;;;;;;;;;;11.02;100.00;101375.41;5089887;28;19927;-76
2024/02/15 09:22:51;;;;;;;;;;;;;;;11.05;100.00;101368.28;5072985;28;19916;-76
2024/02/15 09:25:17;;;;;;;;;;;;;;;11.10;100.00;101370.78;5090759;28;20015;-76
2024/02/15 09:27:43;;;;;;;;;;;;;;;11.07;100.00;101376.97;5090802;28;19991;-76
2024/02/15 09:30:09;;;;;;;;;;;;;;;11.08;100.00;101375.22;5090264;28;20566;-76
2024/02/15 09:32:41;;;;;;;;;;;;;;;11.12;100.00;101384.69;5090442;28;19920;-76
2024/02/15 09:35:09;;;;;;;;;;;;;;;11.10;100.00;101382.09;5090926;28;20127;-76
2024/02/15 09:37:37;;;;;;;;;;;;;;;11.13;100.00;101381.13;5107147;28;19920;-76
2024/02/15 09:40:06;;;;;;;;;;;;;;;11.17;100.00;101372.28;5106777;28;19988;-76
2024/02/15 09:42:34;;;;;;;;;;;;;;;11.22;100.00;101378.19;5107957;28;19920;-76
2024/02/15 09:45:02;;;;;;;;;;;;;;;11.24;100.00;101363.28;5085845;28;20235;-76
2024/02/15 09:47:29;;;;;;;;;;;;;;;11.30;100.00;101360.44;5077990;28;21278;-76
2024/02/15 09:49:56;;;;;;;;;;;;;;;11.32;100.00;101363.84;5092119;28;19996;-76
2024/02/15 09:52:22;;;;;;;;;;;;;;;11.37;100.00;101363.72;5098851;28;20150;-77
2024/02/15 09:54:47;;;;;;;;;;;;;;;11.38;100.00;101361.94;5105658;28;19932;-76
2024/02/15 09:57:12;;;;;;;;;;;;;;;11.41;100.00;101362.69;5095230;28;19920;-76
2024/02/15 09:59:38;;;;;;;;;;;;;;;11.43;100.00;101365.25;5093746;28;19931;-76
2024/02/15 10:02:04;;;;;;;;;;;;;;;11.43;100.00;101373.97;5091965;28;20124;-76
2024/02/15 10:04:29;;;;;;;;;;;;;;;11.41;100.00;101377.56;5091633;28;19924;-76
2024/02/15 10:06:54;;;;;;;;;;;;;;;11.44;100.00;101374.81;5072597;28;20231;-76
2024/02/15 10:09:27;;;;;;;;;;;;;;;11.49;100.00;101375.50;5090218;28;19924;-76
2024/02/15 10:12:03;;;;;;;;;;;;;;;11.49;100.00;101384.22;5092816;28;19921;-76
2024/02/15 10:14:29;;;;;;;;;;;;;;;11.52;100.00;101368.38;5090619;28;20359;-76
2024/02/15 10:16:55;;;;;;;;;;;;;;;11.57;100.00;101383.97;5089677;28;20241;-76
2024/02/15 10:19:24;;;;;;;;;;;;;;;11.58;100.00;101382.19;5089605;28;19954;-76
2024/02/15 10:21:55;;;;;;;;;;;;;;;11.64;100.00;101382.84;5089415;28;19931;-76
2024/02/15 10:24:25;;;;;;;;;;;;;;;11.70;100.00;101387.00;5071901;28;20126;-76
2024/02/15 10:26:51;;;;;;;;;;;;;;;11.74;100.00;101385.13;5089920;28;20277;-76
2024/02/15 10:29:17;;;;;;;;;;;;;;;11.76;100.00;101388.56;5089319;28;19919;-76
2024/02/15 10:31:55;;;;;;;;;;;;;;;11.78;100.00;101387.56;5090684;28;20143;-77
2024/02/15 10:34:21;;;;;;;;;;;;;;;11.79;100.00;101389.28;5084437;28;19935;-77
2024/02/15 10:36:46;;;;;;;;;;;;;;;11.80;100.00;101388.38;5089171;28;19923;-77
2024/02/15 10:39:21;;;;;;;;;;;;;;;11.85;100.00;101377.72;5090253;28;20108;-77
2024/02/15 10:41:47;;;;;;;;;;;;;;;11.88;100.00;101374.97;5090359;28;19983;-77
2024/02/15 10:44:15;;;;;;;;;;;;;;;11.90;100.00;101376.66;5089509;28;19935;-77
2024/02/15 10:46:41;;;;;;;;;;;;;;;11.96;100.00;101379.97;5090259;28;19916;-77
2024/02/15 10:49:06;;;;;;;;;;;;;;;11.96;100.00;101374.72;5089696;28;20123;-77
2024/02/15 10:51:33;;;;;;;;;;;;;;;11.97;100.00;101374.66;5089925;28;20169;-77
2024/02/15 10:54:03;;;;;;;;;;;;;;;11.98;100.00;101367.63;5089471;28;19920;-77
2024/02/15 10:56:34;;;;;;;;;;;;;;;11.99;100.00;101372.84;5090153;28;20170;-77
2024/02/15 10:59:05;;;;;;;;;;;;;;;12.00;100.00;101366.66;5070892;28;19920;-77
2024/02/15 11:01:32;;;;;;;;;;;;;;;11.99;100.00;101366.69;5069741;28;20265;-77
2024/02/15 11:03:59;;;;;;;;;;;;;;;12.02;100.00;101369.22;5089510;28;19920;-77
2024/02/15 11:06:26;;;;;;;;;;;;;;;12.05;100.00;101367.34;5087894;28;19927;-77
2024/02/15 11:08:53;;;;;;;;;;;;;;;12.09;100.00;101362.81;5088524;28;19944;-77
2024/02/15 11:11:19;;;;;;;;;;;;;;;12.15;100.00;101354.72;5084533;28;19924;-77
2024/02/15 11:13:45;;;;;;;;;;;;;;;12.19;100.00;101355.47;5088615;28;20117;-77
2024/02/15 11:16:34;;;;;;;;;;;;;;;12.23;100.00;101352.63;5086295;28;20169;-77
2024/02/15 11:19:00;;;;;;;;;;;;;;;12.28;100.00;101347.22;5086084;28;20093;-77
2024/02/15 11:21:45;;;;;;;;;;;;;;;12.31;100.00;101349.69;5088742;28;20484;-77
2024/02/15 11:24:29;;;;;;;;;;;;;;;12.31;100.00;101344.44;5086797;28;19955;-77
2024/02/15 11:27:04;;;;;;;;;;;;;;;12.31;100.00;101331.31;5088282;28;19924;-77
2024/02/15 11:29:51;;;;;;;;;;;;;;;12.36;100.00;101332.00;5089848;28;19919;-77
2024/02/15 11:32:35;;;;;;;;;;;;;;;12.38;100.00;101331.94;5096265;28;19952;-77
2024/02/15 11:35:16;;;;;;;;;;;;;;;12.37;100.00;101328.47;5090148;28;19959;-77
2024/02/15 11:40:16;;;;;;;;;;;;;;;12.45;100.00;101315.00;5091354;28;20223;-77
2024/02/15 11:42:42;;;;;;;;;;;;;;;12.47;100.00;101314.00;5090604;28;19920;-77
2024/02/15 11:45:08;;;;;;;;;;;;;;;12.52;100.00;101313.84;5091371;28;19928;-77
2024/02/15 11:47:39;;;;;;;;;;;;;;;12.54;100.00;101316.41;5093885;28;19943;-77
2024/02/15 11:50:07;;;;;;;;;;;;;;;12.57;100.00;101311.00;5093597;28;19920;-77
2024/02/15 11:52:33;;;;;;;;;;;;;;;12.60;100.00;101305.63;5094134;28;20238;-77
2024/02/15 11:55:09;;;;;;;;;;;;;;;12.63;100.00;101293.22;5102647;28;19920;-77
2024/02/15 11:57:47;;;;;;;;;;;;;;;12.68;100.00;101299.16;5106106;28;20245;-76
2024/02/15 12:19:31;;;;;;;;;;;;;;;12.87;100.00;101277.34;5092350;28;19927;-76
2024/02/15 12:21:57;;;;;;;;;;;;;;;12.93;100.00;101270.94;5092249;28;20108;-76
2024/02/15 12:24:26;;;;;;;;;;;;;;;12.97;100.00;101268.13;5103902;28;19912;-76
2024/02/15 12:26:52;;;;;;;;;;;;;;;13.01;100.00;101266.22;5098601;28;20234;-76
2024/02/15 12:29:17;;;;;;;;;;;;;;;13.04;100.00;101258.19;5092318;28;19916;-76
2024/02/15 12:31:44;;;;;;;;;;;;;;;13.07;100.00;101251.00;5094313;28;19916;-76
2024/02/15 12:34:09;;;;;;;;;;;;;;;13.11;100.00;101246.47;5092705;28;19924;-76
2024/02/15 12:36:38;;;;;;;;;;;;;;;13.15;100.00;101239.28;5092843;28;20221;-76
2024/02/15 12:39:10;;;;;;;;;;;;;;;13.17;100.00;101234.81;5094653;28;19915;-76
2024/02/15 12:41:40;;;;;;;;;;;;;;;13.18;100.00;101234.75;5094078;28;20250;-76
2024/02/15 12:44:07;;;;;;;;;;;;;;;13.18;100.00;101233.91;5090363;28;20360;-76
2024/02/15 12:46:33;;;;;;;;;;;;;;;13.21;100.00;101236.41;5082032;28;19965;-76
2024/02/15 12:49:13;;;;;;;;;;;;;;;13.25;100.00;101232.72;5092770;28;19920;-76
2024/02/15 12:51:38;;;;;;;;;;;;;;;13.28;100.00;101231.69;5111593;28;19920;-77
2024/02/15 12:54:11;;;;;;;;;;;;;;;13.32;100.00;101221.03;5111828;28;20288;-76
2024/02/15 12:56:37;;;;;;;;;;;;;;;13.34;100.00;101226.22;5109718;28;20240;-76
2024/02/15 12:59:02;;;;;;;;;;;;;;;13.36;100.00;101229.63;5110604;28;19965;-76